sensor_id;sensor_type;location;lat;lon;timestamp;P1;durP1;ratioP1;P2;durP2;ratioP2
69532;SDS011;56729;52.036;5.332;2022-07-25T00:00:57;7.13;;;3.90;;
69532;SDS011;56729;52.036;5.332;2022-07-25T00:02:00;6.15;;;4.00;;
69532;SDS011;56729;52.036;5.332;2022-07-25T00:03:02;5.45;;;3.97;;
69532;SDS011;56729;52.036;5.332;2022-07-25T00:04:04;9.07;;;4.35;;
69532;SDS011;56729;52.036;5.332;2022-07-25T00:05:12;7.95;;;4.10;;
69532;SDS011;56729;52.036;5.332;2022-07-25T00:06:14;6.55;;;3.97;;
69532;SDS011;56729;52.036;5.332;2022-07-25T00:07:18;6.03;;;3.90;;
69532;SDS011;56729;52.036;5.332;2022-07-25T00:08:20;7.80;;;3.93;;
69532;SDS011;56729;52.036;5.332;2022-07-25T00:09:22;7.55;;;4.05;;
69532;SDS011;56729;52.036;5.332;2022-07-25T00:10:24;7.68;;;4.25;;
69532;SDS011;56729;52.036;5.332;2022-07-25T00:11:26;5.97;;;4.10;;
69532;SDS011;56729;52.036;5.332;2022-07-25T00:12:28;6.65;;;4.40;;
69532;SDS011;56729;52.036;5.332;2022-07-25T00:13:30;6.63;;;4.07;;
69532;SDS011;56729;52.036;5.332;2022-07-25T00:14:32;7.35;;;4.00;;
69532;SDS011;56729;52.036;5.332;2022-07-25T00:15:34;5.82;;;3.83;;
69532;SDS011;56729;52.036;5.332;2022-07-25T00:16:36;6.97;;;4.15;;
69532;SDS011;56729;52.036;5.332;2022-07-25T00:17:38;7.10;;;4.88;;
69532;SDS011;56729;52.036;5.332;2022-07-25T00:18:40;5.50;;;4.00;;
69532;SDS011;56729;52.036;5.332;2022-07-25T00:19:42;7.32;;;4.60;;
69532;SDS011;56729;52.036;5.332;2022-07-25T00:20:44;6.70;;;4.07;;
69532;SDS011;56729;52.036;5.332;2022-07-25T00:21:47;6.45;;;4.00;;
69532;SDS011;56729;52.036;5.332;2022-07-25T00:22:49;6.47;;;4.30;;
69532;SDS011;56729;52.036;5.332;2022-07-25T00:23:51;5.30;;;3.97;;
69532;SDS011;56729;52.036;5.332;2022-07-25T00:24:53;7.30;;;4.45;;
69532;SDS011;56729;52.036;5.332;2022-07-25T00:25:55;6.53;;;4.00;;
69532;SDS011;56729;52.036;5.332;2022-07-25T00:26:57;7.00;;;4.20;;
69532;SDS011;56729;52.036;5.332;2022-07-25T00:27:59;6.20;;;4.25;;
69532;SDS011;56729;52.036;5.332;2022-07-25T00:29:00;5.77;;;3.90;;
69532;SDS011;56729;52.036;5.332;2022-07-25T00:30:04;7.10;;;4.97;;
69532;SDS011;56729;52.036;5.332;2022-07-25T00:31:07;7.85;;;4.35;;
69532;SDS011;56729;52.036;5.332;2022-07-25T00:32:11;5.25;;;4.00;;
69532;SDS011;56729;52.036;5.332;2022-07-25T00:33:13;9.27;;;4.63;;
69532;SDS011;56729;52.036;5.332;2022-07-25T00:34:15;9.20;;;3.90;;
69532;SDS011;56729;52.036;5.332;2022-07-25T00:35:16;9.23;;;4.68;;
69532;SDS011;56729;52.036;5.332;2022-07-25T00:36:18;6.43;;;4.57;;
69532;SDS011;56729;52.036;5.332;2022-07-25T00:37:20;7.97;;;5.18;;
69532;SDS011;56729;52.036;5.332;2022-07-25T00:38:22;7.40;;;4.57;;
69532;SDS011;56729;52.036;5.332;2022-07-25T00:39:24;6.10;;;4.20;;
69532;SDS011;56729;52.036;5.332;2022-07-25T00:40:26;7.10;;;5.00;;
69532;SDS011;56729;52.036;5.332;2022-07-25T00:41:28;8.48;;;4.30;;
69532;SDS011;56729;52.036;5.332;2022-07-25T00:42:30;6.72;;;4.78;;
69532;SDS011;56729;52.036;5.332;2022-07-25T00:43:32;7.57;;;4.32;;
69532;SDS011;56729;52.036;5.332;2022-07-25T00:44:34;7.20;;;4.55;;
69532;SDS011;56729;52.036;5.332;2022-07-25T00:45:36;7.43;;;4.55;;
69532;SDS011;56729;52.036;5.332;2022-07-25T00:46:38;7.93;;;4.65;;
69532;SDS011;56729;52.036;5.332;2022-07-25T00:47:41;7.90;;;5.00;;
69532;SDS011;56729;52.036;5.332;2022-07-25T00:48:43;6.53;;;5.00;;
69532;SDS011;56729;52.036;5.332;2022-07-25T00:49:45;7.23;;;4.57;;
69532;SDS011;56729;52.036;5.332;2022-07-25T00:50:47;6.82;;;4.60;;
69532;SDS011;56729;52.036;5.332;2022-07-25T00:51:49;7.57;;;4.70;;
69532;SDS011;56729;52.036;5.332;2022-07-25T00:52:52;7.43;;;4.90;;
69532;SDS011;56729;52.036;5.332;2022-07-25T00:53:55;6.28;;;4.80;;
69532;SDS011;56729;52.036;5.332;2022-07-25T00:54:58;8.77;;;4.60;;
69532;SDS011;56729;52.036;5.332;2022-07-25T00:56:00;8.18;;;4.50;;
69532;SDS011;56729;52.036;5.332;2022-07-25T00:57:02;7.05;;;4.63;;
69532;SDS011;56729;52.036;5.332;2022-07-25T00:58:04;9.05;;;5.22;;
69532;SDS011;56729;52.036;5.332;2022-07-25T00:59:06;6.45;;;4.80;;
69532;SDS011;56729;52.036;5.332;2022-07-25T01:00:10;5.37;;;4.00;;
69532;SDS011;56729;52.036;5.332;2022-07-25T01:01:14;9.18;;;5.07;;
69532;SDS011;56729;52.036;5.332;2022-07-25T01:02:16;9.50;;;4.85;;
69532;SDS011;56729;52.036;5.332;2022-07-25T01:03:19;6.40;;;4.82;;
69532;SDS011;56729;52.036;5.332;2022-07-25T01:04:21;8.43;;;4.60;;
69532;SDS011;56729;52.036;5.332;2022-07-25T01:05:23;9.43;;;5.07;;
69532;SDS011;56729;52.036;5.332;2022-07-25T01:06:25;9.10;;;5.40;;
69532;SDS011;56729;52.036;5.332;2022-07-25T01:07:27;8.10;;;6.10;;
69532;SDS011;56729;52.036;5.332;2022-07-25T01:08:30;7.85;;;4.90;;
69532;SDS011;56729;52.036;5.332;2022-07-25T01:09:32;8.70;;;5.32;;
69532;SDS011;56729;52.036;5.332;2022-07-25T01:10:35;9.17;;;5.67;;
69532;SDS011;56729;52.036;5.332;2022-07-25T01:11:37;9.57;;;5.82;;
69532;SDS011;56729;52.036;5.332;2022-07-25T01:12:57;7.93;;;5.75;;
69532;SDS011;56729;52.036;5.332;2022-07-25T01:13:59;8.73;;;5.45;;
69532;SDS011;56729;52.036;5.332;2022-07-25T01:15:01;11.15;;;6.40;;
69532;SDS011;56729;52.036;5.332;2022-07-25T01:16:03;8.18;;;5.25;;
69532;SDS011;56729;52.036;5.332;2022-07-25T01:17:06;5.97;;;4.90;;
69532;SDS011;56729;52.036;5.332;2022-07-25T01:18:08;10.20;;;5.78;;
69532;SDS011;56729;52.036;5.332;2022-07-25T01:19:10;9.80;;;5.85;;
69532;SDS011;56729;52.036;5.332;2022-07-25T01:20:14;8.50;;;5.93;;
69532;SDS011;56729;52.036;5.332;2022-07-25T01:21:18;9.07;;;5.87;;
69532;SDS011;56729;52.036;5.332;2022-07-25T01:22:20;7.45;;;5.35;;
69532;SDS011;56729;52.036;5.332;2022-07-25T01:23:22;7.03;;;5.28;;
69532;SDS011;56729;52.036;5.332;2022-07-25T01:24:24;10.07;;;6.47;;
69532;SDS011;56729;52.036;5.332;2022-07-25T01:25:27;10.40;;;5.95;;
69532;SDS011;56729;52.036;5.332;2022-07-25T01:26:29;6.95;;;5.60;;
69532;SDS011;56729;52.036;5.332;2022-07-25T01:27:30;8.77;;;5.75;;
69532;SDS011;56729;52.036;5.332;2022-07-25T01:28:32;8.57;;;5.82;;
69532;SDS011;56729;52.036;5.332;2022-07-25T01:29:34;7.88;;;5.15;;
69532;SDS011;56729;52.036;5.332;2022-07-25T01:30:36;7.30;;;5.55;;
69532;SDS011;56729;52.036;5.332;2022-07-25T01:31:38;7.13;;;4.87;;
69532;SDS011;56729;52.036;5.332;2022-07-25T01:32:40;6.82;;;5.28;;
69532;SDS011;56729;52.036;5.332;2022-07-25T01:33:43;9.23;;;5.53;;
69532;SDS011;56729;52.036;5.332;2022-07-25T01:34:45;10.00;;;5.82;;
69532;SDS011;56729;52.036;5.332;2022-07-25T01:35:48;7.50;;;5.28;;
69532;SDS011;56729;52.036;5.332;2022-07-25T01:36:50;7.13;;;5.50;;
69532;SDS011;56729;52.036;5.332;2022-07-25T01:37:52;7.00;;;5.13;;
69532;SDS011;56729;52.036;5.332;2022-07-25T01:38:54;9.00;;;5.63;;
69532;SDS011;56729;52.036;5.332;2022-07-25T01:39:56;8.80;;;5.57;;
69532;SDS011;56729;52.036;5.332;2022-07-25T01:40:58;7.85;;;6.07;;
69532;SDS011;56729;52.036;5.332;2022-07-25T01:42:00;10.20;;;5.80;;
69532;SDS011;56729;52.036;5.332;2022-07-25T01:43:04;8.20;;;6.10;;
69532;SDS011;56729;52.036;5.332;2022-07-25T01:44:06;9.07;;;5.75;;
69532;SDS011;56729;52.036;5.332;2022-07-25T01:45:10;9.57;;;5.97;;
69532;SDS011;56729;52.036;5.332;2022-07-25T01:46:12;11.60;;;7.05;;
69532;SDS011;56729;52.036;5.332;2022-07-25T01:47:14;10.10;;;5.88;;
69532;SDS011;56729;52.036;5.332;2022-07-25T01:48:19;8.57;;;6.35;;
69532;SDS011;56729;52.036;5.332;2022-07-25T01:49:21;10.75;;;6.93;;
69532;SDS011;56729;52.036;5.332;2022-07-25T01:50:23;10.65;;;6.93;;
69532;SDS011;56729;52.036;5.332;2022-07-25T01:51:25;11.60;;;6.95;;
69532;SDS011;56729;52.036;5.332;2022-07-25T01:52:27;8.20;;;6.60;;
69532;SDS011;56729;52.036;5.332;2022-07-25T01:53:29;8.57;;;6.13;;
69532;SDS011;56729;52.036;5.332;2022-07-25T01:54:31;10.23;;;6.10;;
69532;SDS011;56729;52.036;5.332;2022-07-25T01:55:33;8.57;;;5.80;;
69532;SDS011;56729;52.036;5.332;2022-07-25T01:56:35;14.45;;;6.90;;
69532;SDS011;56729;52.036;5.332;2022-07-25T01:57:38;11.00;;;6.95;;
69532;SDS011;56729;52.036;5.332;2022-07-25T01:58:48;7.93;;;6.60;;
69532;SDS011;56729;52.036;5.332;2022-07-25T01:59:50;9.63;;;6.35;;
69532;SDS011;56729;52.036;5.332;2022-07-25T02:00:52;11.70;;;7.05;;
69532;SDS011;56729;52.036;5.332;2022-07-25T02:01:54;9.38;;;6.82;;
69532;SDS011;56729;52.036;5.332;2022-07-25T02:02:57;8.47;;;5.73;;
69532;SDS011;56729;52.036;5.332;2022-07-25T02:04:17;8.43;;;6.45;;
69532;SDS011;56729;52.036;5.332;2022-07-25T02:05:19;8.55;;;5.72;;
69532;SDS011;56729;52.036;5.332;2022-07-25T02:06:21;8.93;;;6.55;;
69532;SDS011;56729;52.036;5.332;2022-07-25T02:07:23;10.57;;;6.40;;
69532;SDS011;56729;52.036;5.332;2022-07-25T02:08:25;8.95;;;6.45;;
69532;SDS011;56729;52.036;5.332;2022-07-25T02:09:27;9.45;;;6.22;;
69532;SDS011;56729;52.036;5.332;2022-07-25T02:10:29;11.65;;;6.70;;
69532;SDS011;56729;52.036;5.332;2022-07-25T02:11:31;8.98;;;6.13;;
69532;SDS011;56729;52.036;5.332;2022-07-25T02:12:33;9.35;;;6.43;;
69532;SDS011;56729;52.036;5.332;2022-07-25T02:13:35;10.17;;;6.23;;
69532;SDS011;56729;52.036;5.332;2022-07-25T02:14:37;9.48;;;6.22;;
69532;SDS011;56729;52.036;5.332;2022-07-25T02:15:39;12.43;;;6.65;;
69532;SDS011;56729;52.036;5.332;2022-07-25T02:16:41;11.52;;;6.55;;
69532;SDS011;56729;52.036;5.332;2022-07-25T02:17:43;9.85;;;6.75;;
69532;SDS011;56729;52.036;5.332;2022-07-25T02:18:45;8.65;;;6.40;;
69532;SDS011;56729;52.036;5.332;2022-07-25T02:19:47;11.85;;;6.72;;
69532;SDS011;56729;52.036;5.332;2022-07-25T02:20:49;9.48;;;6.82;;
69532;SDS011;56729;52.036;5.332;2022-07-25T02:21:51;9.52;;;6.95;;
69532;SDS011;56729;52.036;5.332;2022-07-25T02:22:53;10.23;;;7.07;;
69532;SDS011;56729;52.036;5.332;2022-07-25T02:23:55;9.03;;;6.50;;
69532;SDS011;56729;52.036;5.332;2022-07-25T02:24:57;10.35;;;6.65;;
69532;SDS011;56729;52.036;5.332;2022-07-25T02:25:59;8.13;;;6.18;;
69532;SDS011;56729;52.036;5.332;2022-07-25T02:27:04;10.10;;;6.85;;
69532;SDS011;56729;52.036;5.332;2022-07-25T02:28:06;9.15;;;7.63;;
69532;SDS011;56729;52.036;5.332;2022-07-25T02:29:10;10.52;;;6.97;;
69532;SDS011;56729;52.036;5.332;2022-07-25T02:30:13;9.23;;;5.70;;
69532;SDS011;56729;52.036;5.332;2022-07-25T02:31:15;7.97;;;6.07;;
69532;SDS011;56729;52.036;5.332;2022-07-25T02:32:17;10.68;;;6.20;;
69532;SDS011;56729;52.036;5.332;2022-07-25T02:33:19;7.13;;;5.95;;
69532;SDS011;56729;52.036;5.332;2022-07-25T02:34:21;10.27;;;7.10;;
69532;SDS011;56729;52.036;5.332;2022-07-25T02:35:23;9.50;;;6.57;;
69532;SDS011;56729;52.036;5.332;2022-07-25T02:36:25;10.75;;;6.93;;
69532;SDS011;56729;52.036;5.332;2022-07-25T02:37:27;10.90;;;7.47;;
69532;SDS011;56729;52.036;5.332;2022-07-25T02:38:29;9.18;;;6.53;;
69532;SDS011;56729;52.036;5.332;2022-07-25T02:39:31;8.50;;;6.45;;
69532;SDS011;56729;52.036;5.332;2022-07-25T02:40:33;9.23;;;6.22;;
69532;SDS011;56729;52.036;5.332;2022-07-25T02:41:35;11.23;;;6.60;;
69532;SDS011;56729;52.036;5.332;2022-07-25T02:42:37;9.52;;;6.10;;
69532;SDS011;56729;52.036;5.332;2022-07-25T02:43:39;11.80;;;6.95;;
69532;SDS011;56729;52.036;5.332;2022-07-25T02:44:41;8.87;;;6.20;;
69532;SDS011;56729;52.036;5.332;2022-07-25T02:45:43;10.77;;;6.65;;
69532;SDS011;56729;52.036;5.332;2022-07-25T02:46:45;9.70;;;6.88;;
69532;SDS011;56729;52.036;5.332;2022-07-25T02:47:47;10.25;;;7.40;;
69532;SDS011;56729;52.036;5.332;2022-07-25T02:48:49;11.73;;;7.05;;
69532;SDS011;56729;52.036;5.332;2022-07-25T02:49:51;9.07;;;7.25;;
69532;SDS011;56729;52.036;5.332;2022-07-25T02:50:53;9.38;;;6.63;;
69532;SDS011;56729;52.036;5.332;2022-07-25T02:51:55;10.65;;;7.18;;
69532;SDS011;56729;52.036;5.332;2022-07-25T02:52:58;10.43;;;7.00;;
69532;SDS011;56729;52.036;5.332;2022-07-25T02:53:59;9.63;;;7.22;;
69532;SDS011;56729;52.036;5.332;2022-07-25T02:55:02;8.27;;;6.70;;
69532;SDS011;56729;52.036;5.332;2022-07-25T02:56:10;9.63;;;7.95;;
69532;SDS011;56729;52.036;5.332;2022-07-25T02:57:14;11.15;;;6.63;;
69532;SDS011;56729;52.036;5.332;2022-07-25T02:58:16;9.38;;;7.57;;
69532;SDS011;56729;52.036;5.332;2022-07-25T02:59:18;10.63;;;7.70;;
69532;SDS011;56729;52.036;5.332;2022-07-25T03:00:19;9.48;;;6.50;;
69532;SDS011;56729;52.036;5.332;2022-07-25T03:01:22;10.20;;;6.65;;
69532;SDS011;56729;52.036;5.332;2022-07-25T03:02:24;10.70;;;7.13;;
69532;SDS011;56729;52.036;5.332;2022-07-25T03:03:26;10.80;;;7.18;;
69532;SDS011;56729;52.036;5.332;2022-07-25T03:04:28;13.25;;;7.88;;
69532;SDS011;56729;52.036;5.332;2022-07-25T03:05:31;10.90;;;7.60;;
69532;SDS011;56729;52.036;5.332;2022-07-25T03:06:33;9.48;;;6.82;;
69532;SDS011;56729;52.036;5.332;2022-07-25T03:07:36;9.95;;;6.85;;
69532;SDS011;56729;52.036;5.332;2022-07-25T03:08:38;10.30;;;7.40;;
69532;SDS011;56729;52.036;5.332;2022-07-25T03:09:40;9.18;;;6.97;;
69532;SDS011;56729;52.036;5.332;2022-07-25T03:10:42;11.27;;;6.97;;
69532;SDS011;56729;52.036;5.332;2022-07-25T03:11:44;10.40;;;6.60;;
69532;SDS011;56729;52.036;5.332;2022-07-25T03:12:46;9.93;;;8.05;;
69532;SDS011;56729;52.036;5.332;2022-07-25T03:13:48;10.30;;;7.20;;
69532;SDS011;56729;52.036;5.332;2022-07-25T03:14:50;10.30;;;7.70;;
69532;SDS011;56729;52.036;5.332;2022-07-25T03:15:52;9.27;;;6.80;;
69532;SDS011;56729;52.036;5.332;2022-07-25T03:16:54;12.35;;;7.82;;
69532;SDS011;56729;52.036;5.332;2022-07-25T03:17:56;11.98;;;7.13;;
69532;SDS011;56729;52.036;5.332;2022-07-25T03:18:58;10.15;;;7.47;;
69532;SDS011;56729;52.036;5.332;2022-07-25T03:20:00;13.10;;;8.30;;
69532;SDS011;56729;52.036;5.332;2022-07-25T03:21:02;11.70;;;8.32;;
69532;SDS011;56729;52.036;5.332;2022-07-25T03:22:04;9.77;;;7.75;;
69532;SDS011;56729;52.036;5.332;2022-07-25T03:23:06;10.18;;;7.80;;
69532;SDS011;56729;52.036;5.332;2022-07-25T03:24:08;10.50;;;7.10;;
69532;SDS011;56729;52.036;5.332;2022-07-25T03:25:11;14.00;;;7.90;;
69532;SDS011;56729;52.036;5.332;2022-07-25T03:26:21;9.00;;;6.73;;
69532;SDS011;56729;52.036;5.332;2022-07-25T03:27:25;11.45;;;8.32;;
69532;SDS011;56729;52.036;5.332;2022-07-25T03:28:27;9.57;;;7.97;;
69532;SDS011;56729;52.036;5.332;2022-07-25T03:29:29;9.45;;;7.82;;
69532;SDS011;56729;52.036;5.332;2022-07-25T03:30:31;8.40;;;7.45;;
69532;SDS011;56729;52.036;5.332;2022-07-25T03:31:33;11.73;;;7.85;;
69532;SDS011;56729;52.036;5.332;2022-07-25T03:32:35;10.27;;;7.55;;
69532;SDS011;56729;52.036;5.332;2022-07-25T03:33:37;11.50;;;7.32;;
69532;SDS011;56729;52.036;5.332;2022-07-25T03:34:38;9.20;;;7.25;;
69532;SDS011;56729;52.036;5.332;2022-07-25T03:35:41;10.77;;;7.63;;
69532;SDS011;56729;52.036;5.332;2022-07-25T03:36:43;9.50;;;7.50;;
69532;SDS011;56729;52.036;5.332;2022-07-25T03:37:45;10.95;;;7.85;;
69532;SDS011;56729;52.036;5.332;2022-07-25T03:38:47;10.43;;;7.30;;
69532;SDS011;56729;52.036;5.332;2022-07-25T03:39:49;9.73;;;7.70;;
69532;SDS011;56729;52.036;5.332;2022-07-25T03:40:51;11.38;;;7.97;;
69532;SDS011;56729;52.036;5.332;2022-07-25T03:41:53;14.40;;;8.50;;
69532;SDS011;56729;52.036;5.332;2022-07-25T03:42:55;10.35;;;7.65;;
69532;SDS011;56729;52.036;5.332;2022-07-25T03:43:57;11.77;;;8.20;;
69532;SDS011;56729;52.036;5.332;2022-07-25T03:44:59;11.50;;;8.25;;
69532;SDS011;56729;52.036;5.332;2022-07-25T03:46:01;10.15;;;8.10;;
69532;SDS011;56729;52.036;5.332;2022-07-25T03:47:04;11.77;;;7.73;;
69532;SDS011;56729;52.036;5.332;2022-07-25T03:48:06;11.80;;;9.40;;
69532;SDS011;56729;52.036;5.332;2022-07-25T03:49:08;12.15;;;8.82;;
69532;SDS011;56729;52.036;5.332;2022-07-25T03:50:10;12.55;;;8.25;;
69532;SDS011;56729;52.036;5.332;2022-07-25T03:51:12;12.10;;;8.68;;
69532;SDS011;56729;52.036;5.332;2022-07-25T03:52:14;12.35;;;8.98;;
69532;SDS011;56729;52.036;5.332;2022-07-25T03:53:16;11.32;;;7.82;;
69532;SDS011;56729;52.036;5.332;2022-07-25T03:54:18;12.32;;;8.48;;
69532;SDS011;56729;52.036;5.332;2022-07-25T03:55:20;9.93;;;7.78;;
69532;SDS011;56729;52.036;5.332;2022-07-25T03:56:22;9.70;;;7.35;;
69532;SDS011;56729;52.036;5.332;2022-07-25T03:57:24;11.50;;;8.20;;
69532;SDS011;56729;52.036;5.332;2022-07-25T03:58:26;14.70;;;8.68;;
69532;SDS011;56729;52.036;5.332;2022-07-25T03:59:28;11.30;;;7.80;;
69532;SDS011;56729;52.036;5.332;2022-07-25T04:00:30;12.82;;;8.00;;
69532;SDS011;56729;52.036;5.332;2022-07-25T04:01:32;9.63;;;8.57;;
69532;SDS011;56729;52.036;5.332;2022-07-25T04:02:35;10.60;;;8.20;;
69532;SDS011;56729;52.036;5.332;2022-07-25T04:03:38;14.93;;;8.70;;
69532;SDS011;56729;52.036;5.332;2022-07-25T04:04:41;11.68;;;9.20;;
69532;SDS011;56729;52.036;5.332;2022-07-25T04:05:43;10.88;;;8.32;;
69532;SDS011;56729;52.036;5.332;2022-07-25T04:06:48;11.52;;;8.80;;
69532;SDS011;56729;52.036;5.332;2022-07-25T04:07:49;12.33;;;8.13;;
69532;SDS011;56729;52.036;5.332;2022-07-25T04:08:51;12.07;;;8.88;;
69532;SDS011;56729;52.036;5.332;2022-07-25T04:09:54;10.80;;;8.55;;
69532;SDS011;56729;52.036;5.332;2022-07-25T04:10:56;9.60;;;8.23;;
69532;SDS011;56729;52.036;5.332;2022-07-25T04:11:58;13.07;;;8.43;;
69532;SDS011;56729;52.036;5.332;2022-07-25T04:13:01;10.70;;;8.68;;
69532;SDS011;56729;52.036;5.332;2022-07-25T04:14:03;9.63;;;7.80;;
69532;SDS011;56729;52.036;5.332;2022-07-25T04:15:06;13.82;;;8.75;;
69532;SDS011;56729;52.036;5.332;2022-07-25T04:16:09;14.68;;;8.73;;
69532;SDS011;56729;52.036;5.332;2022-07-25T04:17:18;10.98;;;8.60;;
69532;SDS011;56729;52.036;5.332;2022-07-25T04:18:21;11.67;;;8.37;;
69532;SDS011;56729;52.036;5.332;2022-07-25T04:19:29;13.18;;;8.95;;
69532;SDS011;56729;52.036;5.332;2022-07-25T04:20:31;11.73;;;8.13;;
69532;SDS011;56729;52.036;5.332;2022-07-25T04:21:33;12.25;;;8.10;;
69532;SDS011;56729;52.036;5.332;2022-07-25T04:22:35;10.00;;;8.10;;
69532;SDS011;56729;52.036;5.332;2022-07-25T04:23:37;14.20;;;8.40;;
69532;SDS011;56729;52.036;5.332;2022-07-25T04:24:39;10.13;;;8.07;;
69532;SDS011;56729;52.036;5.332;2022-07-25T04:25:41;9.43;;;7.57;;
69532;SDS011;56729;52.036;5.332;2022-07-25T04:26:43;13.02;;;7.25;;
69532;SDS011;56729;52.036;5.332;2022-07-25T04:27:45;11.57;;;7.32;;
69532;SDS011;56729;52.036;5.332;2022-07-25T04:28:47;9.13;;;7.73;;
69532;SDS011;56729;52.036;5.332;2022-07-25T04:29:49;9.95;;;7.88;;
69532;SDS011;56729;52.036;5.332;2022-07-25T04:30:51;11.20;;;7.50;;
69532;SDS011;56729;52.036;5.332;2022-07-25T04:31:53;9.65;;;7.18;;
69532;SDS011;56729;52.036;5.332;2022-07-25T04:32:55;10.68;;;8.63;;
69532;SDS011;56729;52.036;5.332;2022-07-25T04:33:57;9.35;;;7.35;;
69532;SDS011;56729;52.036;5.332;2022-07-25T04:35:00;11.65;;;7.15;;
69532;SDS011;56729;52.036;5.332;2022-07-25T04:36:02;10.88;;;7.82;;
69532;SDS011;56729;52.036;5.332;2022-07-25T04:37:04;10.18;;;7.75;;
69532;SDS011;56729;52.036;5.332;2022-07-25T04:38:06;13.88;;;8.07;;
69532;SDS011;56729;52.036;5.332;2022-07-25T04:39:14;9.33;;;7.60;;
69532;SDS011;56729;52.036;5.332;2022-07-25T04:40:16;10.48;;;7.68;;
69532;SDS011;56729;52.036;5.332;2022-07-25T04:41:18;11.85;;;7.88;;
69532;SDS011;56729;52.036;5.332;2022-07-25T04:42:19;12.23;;;7.68;;
69532;SDS011;56729;52.036;5.332;2022-07-25T04:43:21;10.70;;;8.10;;
69532;SDS011;56729;52.036;5.332;2022-07-25T04:44:23;13.50;;;8.75;;
69532;SDS011;56729;52.036;5.332;2022-07-25T04:45:25;12.32;;;8.23;;
69532;SDS011;56729;52.036;5.332;2022-07-25T04:46:27;10.38;;;8.27;;
69532;SDS011;56729;52.036;5.332;2022-07-25T04:47:29;10.18;;;7.88;;
69532;SDS011;56729;52.036;5.332;2022-07-25T04:48:31;10.90;;;8.18;;
69532;SDS011;56729;52.036;5.332;2022-07-25T04:49:33;10.90;;;7.47;;
69532;SDS011;56729;52.036;5.332;2022-07-25T04:50:35;10.90;;;7.40;;
69532;SDS011;56729;52.036;5.332;2022-07-25T04:51:37;9.80;;;7.68;;
69532;SDS011;56729;52.036;5.332;2022-07-25T04:52:39;12.15;;;7.05;;
69532;SDS011;56729;52.036;5.332;2022-07-25T04:53:41;14.10;;;7.47;;
69532;SDS011;56729;52.036;5.332;2022-07-25T04:54:43;10.25;;;7.88;;
69532;SDS011;56729;52.036;5.332;2022-07-25T04:55:45;11.55;;;7.60;;
69532;SDS011;56729;52.036;5.332;2022-07-25T04:56:47;8.73;;;7.00;;
69532;SDS011;56729;52.036;5.332;2022-07-25T04:57:50;10.70;;;7.40;;
69532;SDS011;56729;52.036;5.332;2022-07-25T04:58:52;9.55;;;7.78;;
69532;SDS011;56729;52.036;5.332;2022-07-25T04:59:54;9.80;;;7.37;;
69532;SDS011;56729;52.036;5.332;2022-07-25T05:00:56;11.68;;;7.70;;
69532;SDS011;56729;52.036;5.332;2022-07-25T05:01:58;10.32;;;7.50;;
69532;SDS011;56729;52.036;5.332;2022-07-25T05:03:02;10.77;;;7.70;;
69532;SDS011;56729;52.036;5.332;2022-07-25T05:04:04;11.00;;;7.45;;
69532;SDS011;56729;52.036;5.332;2022-07-25T05:05:06;13.00;;;8.85;;
69532;SDS011;56729;52.036;5.332;2022-07-25T05:06:21;13.50;;;7.50;;
69532;SDS011;56729;52.036;5.332;2022-07-25T05:07:24;12.38;;;8.15;;
69532;SDS011;56729;52.036;5.332;2022-07-25T05:08:27;12.25;;;7.53;;
69532;SDS011;56729;52.036;5.332;2022-07-25T05:09:29;12.82;;;8.43;;
69532;SDS011;56729;52.036;5.332;2022-07-25T05:10:31;8.77;;;7.63;;
69532;SDS011;56729;52.036;5.332;2022-07-25T05:11:33;12.85;;;9.00;;
69532;SDS011;56729;52.036;5.332;2022-07-25T05:12:35;12.02;;;8.20;;
69532;SDS011;56729;52.036;5.332;2022-07-25T05:13:37;11.88;;;8.32;;
69532;SDS011;56729;52.036;5.332;2022-07-25T05:14:39;11.68;;;8.05;;
69532;SDS011;56729;52.036;5.332;2022-07-25T05:15:41;10.25;;;7.47;;
69532;SDS011;56729;52.036;5.332;2022-07-25T05:16:43;11.25;;;7.35;;
69532;SDS011;56729;52.036;5.332;2022-07-25T05:17:45;10.50;;;8.18;;
69532;SDS011;56729;52.036;5.332;2022-07-25T05:18:48;9.88;;;8.00;;
69532;SDS011;56729;52.036;5.332;2022-07-25T05:19:50;11.55;;;7.32;;
69532;SDS011;56729;52.036;5.332;2022-07-25T05:20:52;12.33;;;7.23;;
69532;SDS011;56729;52.036;5.332;2022-07-25T05:21:54;12.55;;;8.50;;
69532;SDS011;56729;52.036;5.332;2022-07-25T05:22:55;13.27;;;7.18;;
69532;SDS011;56729;52.036;5.332;2022-07-25T05:23:58;16.00;;;8.45;;
69532;SDS011;56729;52.036;5.332;2022-07-25T05:25:00;11.77;;;9.52;;
69532;SDS011;56729;52.036;5.332;2022-07-25T05:26:04;12.07;;;8.27;;
69532;SDS011;56729;52.036;5.332;2022-07-25T05:27:06;10.15;;;8.05;;
69532;SDS011;56729;52.036;5.332;2022-07-25T05:28:09;10.10;;;7.07;;
69532;SDS011;56729;52.036;5.332;2022-07-25T05:29:10;10.63;;;7.95;;
69532;SDS011;56729;52.036;5.332;2022-07-25T05:30:12;13.15;;;9.68;;
69532;SDS011;56729;52.036;5.332;2022-07-25T05:31:15;8.83;;;6.93;;
69532;SDS011;56729;52.036;5.332;2022-07-25T05:32:17;9.88;;;8.07;;
69532;SDS011;56729;52.036;5.332;2022-07-25T05:33:19;12.00;;;7.35;;
69532;SDS011;56729;52.036;5.332;2022-07-25T05:34:21;12.70;;;8.43;;
69532;SDS011;56729;52.036;5.332;2022-07-25T05:35:23;10.70;;;8.32;;
69532;SDS011;56729;52.036;5.332;2022-07-25T05:36:25;11.25;;;7.97;;
69532;SDS011;56729;52.036;5.332;2022-07-25T05:37:27;9.60;;;7.82;;
69532;SDS011;56729;52.036;5.332;2022-07-25T05:38:29;11.13;;;7.80;;
69532;SDS011;56729;52.036;5.332;2022-07-25T05:39:31;11.63;;;8.25;;
69532;SDS011;56729;52.036;5.332;2022-07-25T05:40:33;15.07;;;8.05;;
69532;SDS011;56729;52.036;5.332;2022-07-25T05:41:35;12.97;;;7.73;;
69532;SDS011;56729;52.036;5.332;2022-07-25T05:42:37;11.07;;;8.07;;
69532;SDS011;56729;52.036;5.332;2022-07-25T05:43:39;11.82;;;9.57;;
69532;SDS011;56729;52.036;5.332;2022-07-25T05:44:46;14.77;;;9.15;;
69532;SDS011;56729;52.036;5.332;2022-07-25T05:45:48;10.43;;;8.63;;
69532;SDS011;56729;52.036;5.332;2022-07-25T05:46:50;11.77;;;8.30;;
69532;SDS011;56729;52.036;5.332;2022-07-25T05:47:52;13.15;;;7.75;;
69532;SDS011;56729;52.036;5.332;2022-07-25T05:48:54;12.60;;;9.27;;
69532;SDS011;56729;52.036;5.332;2022-07-25T05:49:56;9.43;;;8.05;;
69532;SDS011;56729;52.036;5.332;2022-07-25T05:50:59;12.90;;;8.80;;
69532;SDS011;56729;52.036;5.332;2022-07-25T05:52:01;14.27;;;8.40;;
69532;SDS011;56729;52.036;5.332;2022-07-25T05:53:11;12.00;;;8.80;;
69532;SDS011;56729;52.036;5.332;2022-07-25T05:54:13;10.85;;;7.63;;
69532;SDS011;56729;52.036;5.332;2022-07-25T05:55:15;14.38;;;8.70;;
69532;SDS011;56729;52.036;5.332;2022-07-25T05:56:18;13.38;;;9.13;;
69532;SDS011;56729;52.036;5.332;2022-07-25T05:57:21;17.10;;;8.35;;
69532;SDS011;56729;52.036;5.332;2022-07-25T05:58:23;13.80;;;9.63;;
69532;SDS011;56729;52.036;5.332;2022-07-25T05:59:30;15.70;;;8.55;;
69532;SDS011;56729;52.036;5.332;2022-07-25T06:00:32;12.75;;;8.02;;
69532;SDS011;56729;52.036;5.332;2022-07-25T06:01:34;11.63;;;8.32;;
69532;SDS011;56729;52.036;5.332;2022-07-25T06:02:36;13.30;;;8.07;;
69532;SDS011;56729;52.036;5.332;2022-07-25T06:03:38;15.45;;;9.60;;
69532;SDS011;56729;52.036;5.332;2022-07-25T06:04:41;13.85;;;7.90;;
69532;SDS011;56729;52.036;5.332;2022-07-25T06:05:43;10.77;;;8.10;;
69532;SDS011;56729;52.036;5.332;2022-07-25T06:06:46;15.10;;;8.73;;
69532;SDS011;56729;52.036;5.332;2022-07-25T06:07:52;13.98;;;8.20;;
69532;SDS011;56729;52.036;5.332;2022-07-25T06:08:54;15.90;;;8.45;;
69532;SDS011;56729;52.036;5.332;2022-07-25T06:09:56;14.35;;;9.20;;
69532;SDS011;56729;52.036;5.332;2022-07-25T06:10:59;12.45;;;8.38;;
69532;SDS011;56729;52.036;5.332;2022-07-25T06:12:02;11.20;;;8.05;;
69532;SDS011;56729;52.036;5.332;2022-07-25T06:13:04;15.93;;;8.67;;
69532;SDS011;56729;52.036;5.332;2022-07-25T06:14:07;15.13;;;8.38;;